Time;durP1;ratioP1;P1;durP2;ratioP2;P2;SDS_P1;SDS_P2;PMS_P1;PMS_P2;Temp;Humidity;BMP_temperature;BMP_pressure;BME280_temperature;BME280_humidity;BME280_pressure;Samples;Min_cycle;Max_cycle;Signal;HPM_P1;HPM_P2
2022/04/21 00:01:41;;;;;;;7.97;4.95;;;8.80;43.70;;;4.50;60.62;94753.97;5016090;28;20018;-56
2022/04/21 00:04:06;;;;;;;8.23;5.35;;;8.70;43.80;;;4.49;60.05;94748.97;5015966;28;20061;-57
2022/04/21 00:06:36;;;;;;;9.07;5.05;;;8.70;43.90;;;4.44;60.78;94747.06;5011568;28;20065;-55
2022/04/21 00:09:04;;;;;;;9.25;5.55;;;8.60;44.00;;;4.36;61.31;94750.94;5007145;28;20120;-56
2022/04/21 00:11:36;;;;;;;10.23;5.78;;;8.60;44.20;;;4.25;62.64;94743.13;5015989;28;20029;-56
2022/04/21 00:14:07;;;;;;;9.35;6.07;;;8.50;44.40;;;4.17;63.17;94739.09;5015858;28;20141;-57
2022/04/21 00:16:35;;;;;;;10.13;6.30;;;8.40;44.70;;;4.10;63.31;94746.38;5016123;28;20124;-57
2022/04/21 00:19:04;;;;;;;8.88;5.93;;;8.40;44.80;;;4.04;63.01;94742.06;5011234;28;20065;-56
2022/04/21 00:24:32;;;;;;;7.47;5.72;;;8.20;45.70;;;3.77;64.27;94741.97;5016141;28;20076;-58
2022/04/21 00:26:58;;;;;;;8.57;5.47;;;8.10;45.30;;;3.69;64.48;94741.31;5011207;28;20062;-54
2022/04/21 00:29:26;;;;;;;8.93;6.18;;;8.00;45.30;;;3.63;64.82;94742.28;5012925;28;20125;-57
2022/04/21 00:31:52;;;;;;;9.35;5.80;;;7.90;45.50;;;3.55;65.01;94734.03;5015564;28;20026;-57
2022/04/21 00:34:18;;;;;;;8.88;6.22;;;7.80;45.70;;;3.45;65.43;94727.56;5014445;28;20034;-56
2022/04/21 00:36:45;;;;;;;11.32;6.22;;;7.80;45.80;;;3.34;65.69;94733.69;5014335;28;20037;-57
2022/04/21 00:39:11;;;;;;;12.23;6.65;;;7.70;46.00;;;3.29;65.75;94732.81;5010938;28;20116;-53
2022/04/21 00:41:43;;;;;;;9.43;6.10;;;7.60;46.10;;;3.17;66.34;94731.06;5003486;28;20069;-57
2022/04/21 00:44:12;;;;;;;7.93;5.50;;;7.50;46.40;;;3.10;66.55;94727.00;5015103;28;20113;-55
2022/04/21 00:46:41;;;;;;;9.18;6.15;;;7.40;46.40;;;3.07;66.17;94723.03;5015345;28;20030;-54
2022/04/21 00:49:14;;;;;;;9.55;5.80;;;7.30;46.60;;;3.00;66.63;94719.72;5011081;28;20449;-57
2022/04/21 00:51:40;;;;;;;;;;;7.30;46.70;;;3.03;66.87;94732.41;4979406;28;20037;-57
2022/04/21 00:54:06;;;;;;;9.50;6.03;;;7.20;46.30;;;2.98;66.91;94724.44;5015047;28;19921;-56
2022/04/21 00:56:32;;;;;;;8.65;6.03;;;7.20;46.40;;;2.92;67.81;94730.66;5015172;28;20164;-55
2022/04/21 00:58:58;;;;;;;12.50;6.30;;;7.10;46.60;;;2.83;66.83;94729.44;4994627;28;20026;-57
2022/04/21 01:04:10;;;;;;;8.75;5.88;;;7.00;46.80;;;2.71;68.16;94732.91;5008620;28;20040;-57
2022/04/21 01:06:39;;;;;;;9.27;6.15;;;7.00;47.00;;;2.65;68.44;94725.16;5007502;28;20105;-55
2022/04/21 01:09:11;;;;;;;11.88;6.22;;;6.90;47.10;;;2.62;68.54;94736.16;5010577;28;20034;-56
2022/04/21 01:11:38;;;;;;;8.70;6.22;;;6.90;47.50;;;2.60;68.54;94727.69;5013572;28;20039;-55
2022/04/21 01:14:08;;;;;;;11.35;5.72;;;6.80;47.40;;;2.48;68.49;94718.03;5001931;23;20050;-54
2022/04/21 01:16:36;;;;;;;8.68;6.05;;;6.80;47.60;;;2.55;68.03;94729.22;5012880;28;20392;-52
2022/04/21 01:19:02;;;;;;;9.13;5.95;;;6.80;47.60;;;2.58;68.74;94724.53;5029842;28;20022;-52
2022/04/21 01:21:31;;;;;;;8.75;5.88;;;6.80;47.70;;;2.56;68.40;94724.75;5014772;28;20056;-54
2022/04/21 01:23:56;;;;;;;9.02;6.20;;;6.70;47.90;;;2.55;69.03;94725.78;5026550;28;20025;-53
2022/04/21 01:26:30;;;;;;;9.88;5.75;;;6.70;48.00;;;2.56;68.05;94722.13;5034811;28;20025;-52
2022/04/21 01:29:05;;;;;;;7.72;5.68;;;6.70;48.20;;;2.55;67.67;94712.63;5034594;28;20387;-50
2022/04/21 01:31:38;;;;;;;7.45;5.55;;;6.70;48.20;;;2.54;68.20;94721.56;5022608;28;20033;-54
2022/04/21 01:34:04;;;;;;;8.45;5.75;;;6.70;48.30;;;2.47;67.57;94713.78;5034622;28;20059;-54
2022/04/21 01:36:29;;;;;;;8.73;6.28;;;6.60;48.20;;;2.49;67.85;94716.22;5049755;28;20442;-56
2022/04/21 01:41:42;;;;;;;9.77;5.65;;;6.60;48.30;;;2.41;67.79;94706.84;5034443;28;20143;-52
2022/04/21 01:44:10;;;;;;;9.27;5.78;;;6.60;48.30;;;2.46;66.93;94711.41;5032739;28;20112;-53
2022/04/21 01:46:39;;;;;;;10.95;6.40;;;6.60;48.50;;;2.50;67.42;94713.31;5033043;28;20025;-53
2022/04/21 01:49:11;;;;;;;9.30;5.68;;;6.60;48.70;;;2.51;66.89;94712.31;5029756;28;20025;-54
2022/04/21 01:51:39;;;;;;;12.15;6.07;;;6.60;48.60;;;2.43;67.91;94714.50;5034196;28;20033;-54
2022/04/21 01:54:05;;;;;;;8.95;6.32;;;6.60;48.80;;;2.41;68.14;94706.84;5033905;28;20021;-55
2022/04/21 01:56:31;;;;;;;9.70;6.18;;;6.60;48.80;;;2.43;68.05;94698.75;5032644;28;20029;-54
2022/04/21 01:59:00;;;;;;;9.55;5.78;;;6.60;49.00;;;2.42;67.86;94682.19;5032550;28;20076;-53
2022/04/21 02:01:26;;;;;;;8.80;6.15;;;6.60;49.10;;;2.40;68.57;94678.19;5032851;28;20030;-53
2022/04/21 02:04:00;;;;;;;10.27;6.65;;;6.60;49.00;;;2.31;68.88;94685.63;5031468;28;20037;-56
2022/04/21 02:06:26;;;;;;;10.57;7.00;;;6.50;49.30;;;2.27;68.85;94684.53;5033852;28;20053;-54
2022/04/21 02:09:01;;;;;;;11.13;6.40;;;6.50;49.20;;;2.22;68.98;94671.28;5032546;28;20053;-52
2022/04/21 02:11:30;;;;;;;8.48;6.05;;;6.50;49.50;;;2.26;68.53;94682.94;5032341;28;20029;-49
2022/04/21 02:14:06;;;;;;;9.68;6.20;;;6.50;49.30;;;2.22;68.65;94685.22;5032275;28;20037;-54
2022/04/21 02:16:37;;;;;;;8.45;6.03;;;6.40;49.50;;;2.24;68.61;94682.38;5012170;28;20048;-50
2022/04/21 02:19:03;;;;;;;9.55;5.97;;;6.50;49.60;;;2.21;68.28;94683.63;5033464;28;20022;-53
2022/04/21 02:21:32;;;;;;;9.10;6.07;;;6.40;49.40;;;2.21;67.52;94688.88;5028726;28;20041;-54
2022/04/21 02:24:04;;;;;;;10.73;6.10;;;6.40;49.40;;;2.19;68.29;94674.38;5031254;28;20279;-54
2022/04/21 02:26:33;;;;;;;9.35;6.03;;;6.40;49.50;;;2.14;68.00;94675.09;5033501;28;20052;-55
2022/04/21 02:29:01;;;;;;;9.23;6.22;;;6.40;49.40;;;2.11;68.43;94674.75;5033298;28;20515;-54
2022/04/21 02:31:33;;;;;;;9.48;6.07;;;6.40;49.50;;;2.06;68.50;94673.59;5033372;28;20029;-51
2022/04/21 02:33:59;;;;;;;9.27;5.80;;;6.40;49.50;;;2.07;68.16;94677.84;5033190;28;20033;-52
2022/04/21 02:36:25;;;;;;;9.73;6.68;;;6.40;49.50;;;2.03;70.07;94673.28;5033176;28;20104;-49
2022/04/21 02:38:53;;;;;;;9.95;6.05;;;6.40;49.60;;;2.00;68.60;94669.28;5033147;28;20029;-52
2022/04/21 02:41:20;;;;;;;7.93;5.90;;;6.30;49.60;;;1.94;69.85;94672.03;5033065;28;20034;-56
2022/04/21 02:43:59;;;;;;;11.18;6.70;;;6.30;49.60;;;1.90;70.18;94679.59;5032986;28;20079;-52
2022/04/21 02:46:29;;;;;;;9.30;6.47;;;6.30;50.40;;;1.92;69.87;94672.28;5032918;28;20434;-55
2022/04/21 02:49:08;;;;;;;9.75;6.63;;;6.20;49.70;;;1.83;69.87;94674.47;5028347;28;20026;-52
2022/04/21 02:51:37;;;;;;;11.52;6.47;;;6.20;49.90;;;1.75;70.08;94653.81;5030112;28;20025;-52
2022/04/21 02:59:40;;;;;;;10.68;7.07;;;6.00;50.60;;;1.55;70.57;94666.53;5031763;28;20515;-54
2022/04/21 03:02:09;;;;;;;11.20;6.47;;;6.00;50.20;;;1.45;70.84;94667.13;5031655;28;20443;-52
2022/04/21 03:04:40;;;;;;;14.02;6.55;;;5.90;50.30;;;1.37;71.45;94670.06;5032703;28;20492;-51
2022/04/21 03:07:06;;;;;;;9.52;6.55;;;5.80;50.50;;;1.35;70.18;94665.06;5031633;28;20395;-52
2022/04/21 03:09:34;;;;;;;9.57;6.63;;;5.70;50.50;;;1.33;70.29;94672.38;5032569;28;20040;-50
2022/04/21 03:12:04;;;;;;;10.68;6.68;;;5.70;50.40;;;1.27;70.66;94664.63;5031397;28;20034;-53
2022/04/21 03:14:31;;;;;;;12.30;6.18;;;5.60;50.50;;;1.20;69.57;94663.94;5032362;28;20488;-52
2022/04/21 03:16:57;;;;;;;10.63;6.40;;;5.60;50.40;;;1.14;69.56;94663.00;5016971;28;20030;-53
2022/04/21 03:19:24;;;;;;;8.55;5.43;;;5.50;50.30;;;1.17;69.71;94667.81;5032488;28;20029;-50
2022/04/21 03:25:01;;;;;;;9.57;5.80;;;5.50;50.80;;;1.24;69.88;94665.88;5031694;28;20029;-52
2022/04/21 03:27:29;;;;;;;11.13;6.97;;;5.40;51.00;;;1.33;69.90;94672.38;5031388;28;20032;-50
2022/04/21 03:29:56;;;;;;;11.15;6.45;;;5.50;51.20;;;1.40;69.74;94667.00;5032348;28;20120;-49
2022/04/21 03:32:22;;;;;;;11.60;6.40;;;5.50;51.40;;;1.45;68.96;94672.38;5031161;28;20034;-53
2022/04/21 03:35:00;;;;;;;10.82;7.25;;;5.50;51.60;;;1.48;69.20;94666.66;5047542;28;20045;-52
2022/04/21 03:37:29;;;;;;;12.35;6.10;;;5.50;51.70;;;1.55;68.09;94661.28;5031171;28;20108;-49
2022/04/21 03:39:54;;;;;;;8.20;5.32;;;5.60;51.90;;;1.62;67.98;94661.94;5032236;28;20111;-49
2022/04/21 03:42:23;;;;;;;9.13;5.60;;;5.60;51.90;;;1.66;67.55;94657.84;5032402;28;20088;-49
2022/04/21 03:44:52;;;;;;;8.75;5.85;;;5.70;52.00;;;1.78;66.97;94657.81;5014672;28;20032;-50
2022/04/21 03:47:22;;;;;;;8.88;6.22;;;5.70;52.00;;;1.85;66.84;94659.28;5031145;28;20132;-51
2022/04/21 03:49:47;;;;;;;11.43;6.45;;;5.80;52.00;;;1.81;66.67;94650.25;5014495;28;20044;-52
2022/04/21 03:52:14;;;;;;;9.55;5.55;;;5.90;52.00;;;1.77;67.02;94649.13;5031040;28;20038;-51
2022/04/21 03:54:42;;;;;;;10.52;6.10;;;5.80;51.90;;;1.76;67.38;94657.25;5030973;28;20037;-50
2022/04/21 03:57:17;;;;;;;9.77;5.75;;;5.90;51.80;;;1.68;67.43;94652.38;5032149;28;20549;-51
2022/04/21 03:59:43;;;;;;;9.35;6.40;;;5.90;51.70;;;1.66;68.08;94644.72;5031780;28;20025;-53
2022/04/21 04:02:08;;;;;;;11.93;7.13;;;5.90;51.60;;;1.59;69.04;94644.03;5030812;28;20036;-52
2022/04/21 04:04:37;;;;;;;11.18;7.22;;;5.90;51.70;;;1.44;69.84;94648.97;5030843;28;20041;-54
2022/04/21 04:12:40;;;;;;;11.60;6.95;;;5.60;51.50;;;1.09;71.10;94653.19;5031847;28;20390;-51
2022/04/21 04:15:10;;;;;;;11.48;6.90;;;5.60;52.50;;;0.98;71.32;94648.75;5028263;28;20042;-53
2022/04/21 04:17:36;;;;;;;10.48;7.28;;;5.50;51.90;;;0.96;71.32;94650.00;5003631;28;20048;-49
2022/04/21 04:20:04;;;;;;;11.68;7.60;;;5.40;52.10;;;0.92;71.50;94645.22;5031830;28;20029;-49
2022/04/21 04:22:40;;;;;;;11.38;7.57;;;5.30;52.40;;;0.92;71.71;94653.06;5030189;28;20072;-52
2022/04/21 04:25:09;;;;;;;13.23;6.95;;;5.30;52.60;;;0.94;71.54;94652.88;5031931;28;20021;-53
2022/04/21 04:27:36;;;;;;;12.18;7.22;;;5.30;53.30;;;0.94;71.16;94658.09;5033205;28;20021;-53
2022/04/21 04:30:05;;;;;;;9.77;6.75;;;5.30;52.70;;;0.90;71.32;94649.06;5034328;28;20030;-50
2022/04/21 04:32:30;;;;;;;9.38;6.47;;;5.30;52.70;;;0.96;70.75;94656.03;5020063;28;20509;-51
2022/04/21 04:34:56;;;;;;;10.40;6.13;;;5.20;52.70;;;0.95;70.70;94651.84;5030642;28;20044;-50
2022/04/21 04:37:22;;;;;;;10.07;6.22;;;5.20;52.70;;;0.97;70.53;94639.28;5034302;28;20025;-52
2022/04/21 04:39:47;;;;;;;9.43;5.95;;;5.30;52.70;;;1.01;70.38;94640.44;5034096;28;20038;-53
2022/04/21 04:42:40;;;;;;;9.68;6.30;;;5.30;52.70;;;1.11;70.39;94645.09;5035466;28;20033;-53
2022/04/21 04:47:55;;;;;;;12.23;6.30;;;5.40;53.00;;;1.32;69.87;94639.28;5034207;28;20031;-55
2022/04/21 04:50:21;;;;;;;8.82;5.88;;;5.50;53.20;;;1.42;70.04;94643.97;5035142;28;20395;-52
2022/04/21 04:52:47;;;;;;;8.52;6.03;;;5.60;53.30;;;1.54;69.69;94644.75;5033880;28;20487;-54
2022/04/21 04:55:13;;;;;;;8.85;6.25;;;5.70;53.60;;;1.64;69.49;94645.97;5035274;28;20499;-55
2022/04/21 04:57:40;;;;;;;7.72;5.63;;;5.80;53.50;;;1.74;68.80;94644.34;5034920;28;20075;-52
2022/04/21 05:00:10;;;;;;;11.38;5.97;;;5.90;53.50;;;1.87;68.82;94645.13;5034809;28;20061;-50
2022/04/21 05:02:39;;;;;;;12.25;6.07;;;6.00;53.30;;;2.00;68.30;94653.53;5034937;28;20479;-50
2022/04/21 05:05:05;;;;;;;11.45;6.35;;;6.20;53.20;;;2.24;68.24;94649.00;5034996;28;20479;-55
2022/04/21 05:07:39;;;;;;;8.45;6.35;;;6.30;53.00;;;2.53;67.38;94641.09;5034918;28;20108;-50
2022/04/21 05:10:08;;;;;;;9.68;6.82;;;6.60;52.80;;;2.81;66.68;94652.59;5034825;28;20025;-50
2022/04/21 05:12:34;;;;;;;10.07;6.38;;;6.70;52.50;;;3.04;66.04;94647.19;5034431;28;20091;-54
2022/04/21 05:15:01;;;;;;;9.02;6.07;;;6.90;52.40;;;3.27;65.49;94654.09;5030294;28;20042;-49
2022/04/21 05:17:27;;;;;;;10.95;6.75;;;7.10;52.20;;;3.48;64.42;94653.34;5033515;28;20112;-52
2022/04/21 05:19:53;;;;;;;8.70;6.65;;;7.30;52.00;;;3.69;63.36;94648.34;5033186;28;20022;-51
2022/04/21 05:22:27;;;;;;;13.27;6.13;;;7.60;51.80;;;3.94;62.50;94646.03;5034647;28;20373;-52
2022/04/21 05:24:53;;;;;;;12.00;6.60;;;7.80;51.40;;;4.17;61.90;94646.84;5032856;28;20404;-52
2022/04/21 05:27:22;;;;;;;10.05;6.22;;;8.10;51.10;;;4.42;62.09;94654.22;5008341;28;20026;-52
2022/04/21 05:32:38;;;;;;;12.13;5.95;;;8.70;50.50;;;4.97;60.17;94650.50;5020203;28;20053;-55
2022/04/21 05:35:04;;;;;;;10.35;6.13;;;9.00;50.10;;;5.26;59.69;94643.03;5012557;28;20080;-56
2022/04/21 05:37:35;;;;;;;8.75;5.55;;;9.30;49.70;;;5.52;58.78;94651.94;5010952;28;20030;-55
2022/04/21 05:40:03;;;;;;;8.35;5.80;;;9.70;50.10;;;5.69;58.48;94645.69;5011977;28;20021;-52
2022/04/21 05:42:34;;;;;;;13.35;5.68;;;9.90;49.00;;;5.88;57.35;94641.56;4960008;28;20473;-49
2022/04/21 05:45:00;;;;;;;9.65;5.75;;;10.20;48.60;;;6.01;56.98;94643.75;5005168;28;20067;-49
2022/04/21 05:47:26;;;;;;;7.20;5.47;;;10.50;48.00;;;6.13;55.95;94632.97;5021707;28;20032;-54
2022/04/21 05:49:52;;;;;;;7.47;5.45;;;10.80;47.50;;;6.29;55.75;94636.44;5015530;28;20073;-53
2022/04/21 05:52:22;;;;;;;10.07;5.57;;;11.00;47.00;;;6.41;55.49;94630.94;5013733;28;20536;-54
2022/04/21 05:55:11;;;;;;;7.18;5.78;;;11.30;47.10;;;6.65;54.91;94642.63;5018094;28;20037;-53
2022/04/21 05:58:03;;;;;;;8.90;5.55;;;11.60;46.10;;;6.84;54.10;94640.28;5025873;28;20062;-54
2022/04/21 06:00:28;;;;;;;7.18;5.28;;;11.90;45.50;;;7.04;53.49;94639.47;5015549;28;20037;-56
2022/04/21 06:02:57;;;;;;;7.35;5.65;;;12.00;45.10;;;7.19;52.75;94641.34;5032419;28;20025;-56
2022/04/21 06:05:35;;;;;;;7.00;5.25;;;12.20;44.60;;;7.28;52.41;94634.44;5031530;28;20032;-52
2022/04/21 06:08:02;;;;;;;11.82;5.22;;;12.50;44.10;;;7.45;51.98;94631.50;5017796;28;20037;-53
2022/04/21 06:10:37;;;;;;;9.70;5.95;;;12.60;43.70;;;7.54;51.59;94637.06;5017161;28;20056;-54
2022/04/21 06:13:07;;;;;;;8.73;5.40;;;12.80;43.20;;;7.52;51.68;94632.03;5031574;28;20046;-53
2022/04/21 06:15:33;;;;;;;7.72;5.60;;;13.00;42.80;;;7.60;51.57;94638.63;4998374;28;20030;-54
2022/04/21 06:18:00;;;;;;;7.70;5.57;;;13.20;42.50;;;7.72;51.01;94635.69;5020983;28;20103;-56
2022/04/21 06:20:31;;;;;;;9.63;6.15;;;13.30;42.00;;;7.70;51.27;94637.81;5032398;28;20032;-51
2022/04/21 06:23:03;;;;;;;11.55;5.95;;;13.60;41.70;;;7.77;50.69;94633.84;5033535;28;20025;-54
2022/04/21 06:25:31;;;;;;;8.95;5.70;;;13.70;41.30;;;7.97;50.70;94640.91;5033266;28;20034;-56
2022/04/21 06:28:10;;;;;;;7.82;5.63;;;13.80;41.10;;;8.08;50.24;94637.19;5032216;28;20064;-52
2022/04/21 06:30:36;;;;;;;9.15;5.70;;;14.00;40.70;;;8.42;50.06;94628.53;5033191;28;20546;-53
2022/04/21 06:33:02;;;;;;;8.20;5.75;;;14.20;40.50;;;8.60;49.05;94629.78;5032720;28;20034;-54
2022/04/21 06:35:37;;;;;;;11.82;5.95;;;14.40;40.10;;;8.72;48.89;94630.25;5031756;28;20163;-53
2022/04/21 06:38:03;;;;;;;8.60;6.00;;;14.60;39.70;;;8.95;48.70;94620.00;5032939;28;20036;-56
2022/04/21 06:40:29;;;;;;;8.30;6.25;;;14.80;39.60;;;9.10;48.55;94622.53;5031868;28;20365;-56
2022/04/21 06:43:02;;;;;;;8.73;5.70;;;15.00;39.20;;;9.24;47.81;94631.47;5032592;28;20108;-52
2022/04/21 06:48:26;;;;;;;7.60;5.78;;;15.40;38.30;;;9.65;46.32;94622.28;5032730;28;20036;-52
2022/04/21 06:50:58;;;;;;;9.00;6.32;;;15.60;37.90;;;9.77;46.32;94624.56;5032468;28;20029;-55
2022/04/21 06:53:30;;;;;;;8.88;6.03;;;15.90;37.50;;;9.93;46.70;94613.50;5031618;28;20038;-54
2022/04/21 06:55:56;;;;;;;9.30;6.22;;;16.10;37.20;;;9.86;45.46;94609.56;5031763;28;20168;-51
2022/04/21 06:58:29;;;;;;;9.77;6.35;;;16.30;36.80;;;9.89;46.00;94617.00;5032815;28;20025;-53
2022/04/21 07:00:54;;;;;;;12.30;5.57;;;16.50;36.00;;;10.07;45.41;94610.13;5032698;28;20034;-53
2022/04/21 07:03:27;;;;;;;8.13;6.20;;;16.60;35.90;;;10.00;46.02;94609.66;5032716;28;20036;-51
2022/04/21 07:06:01;;;;;;;7.70;5.78;;;16.80;35.60;;;10.05;45.14;94610.41;5031621;28;20049;-55
2022/04/21 07:08:30;;;;;;;9.82;6.18;;;16.80;35.20;;;10.27;45.19;94614.44;5032712;28;20033;-54
2022/04/21 07:10:56;;;;;;;8.98;5.88;;;17.00;34.90;;;10.41;44.69;94612.66;5005589;28;20032;-56
2022/04/21 07:13:22;;;;;;;7.78;6.38;;;17.10;34.60;;;10.58;44.75;94617.50;5016201;28;20081;-56
2022/04/21 07:15:48;;;;;;;9.32;6.20;;;17.30;34.40;;;10.69;44.10;94610.97;5010269;28;20034;-48
2022/04/21 07:18:16;;;;;;;8.10;5.97;;;17.40;34.10;;;10.71;44.42;94615.97;5031115;28;20059;-49
2022/04/21 07:20:42;;;;;;;8.50;5.85;;;17.60;33.90;;;10.96;43.91;94615.59;5009491;28;20055;-50
2022/04/21 07:23:08;;;;;;;8.55;6.53;;;17.70;33.60;;;11.23;43.21;94617.59;5015154;28;20037;-53
2022/04/21 07:25:39;;;;;;;8.27;5.60;;;17.90;33.60;;;11.29;41.78;94605.75;4993455;28;20014;-50
2022/04/21 07:28:08;;;;;;;8.15;5.97;;;18.10;32.80;;;11.23;42.57;94622.13;5012194;28;20789;-51
2022/04/21 07:30:34;;;;;;;6.82;5.63;;;18.20;32.40;;;11.12;42.01;94613.50;4995663;28;20068;-54
2022/04/21 07:33:01;;;;;;;7.90;5.90;;;18.30;32.10;;;11.08;41.82;94607.16;5008761;28;20034;-52
2022/04/21 07:35:26;;;;;;;7.22;5.55;;;18.40;31.80;;;11.35;42.59;94615.25;5028644;28;20063;-51
2022/04/21 07:37:58;;;;;;;7.47;5.93;;;18.60;31.60;;;11.52;42.04;94611.25;5030426;28;20119;-51
2022/04/21 07:40:24;;;;;;;7.37;5.63;;;18.70;31.40;;;11.82;42.17;94612.56;5008497;28;20034;-52
2022/04/21 07:42:50;;;;;;;9.25;5.72;;;18.80;31.40;;;12.19;41.37;94613.47;5010567;28;20361;-49
2022/04/21 07:45:40;;;;;;;7.85;6.22;;;19.00;31.30;;;12.33;40.87;94611.59;5032025;28;20036;-52
2022/04/21 07:48:07;;;;;;;9.07;6.38;;;19.30;31.00;;;12.54;40.97;94606.63;5032134;28;20038;-52
2022/04/21 07:50:39;;;;;;;7.22;6.20;;;19.40;30.90;;;12.66;40.38;94611.44;5029044;28;20061;-54
2022/04/21 07:53:13;;;;;;;9.32;6.30;;;19.70;30.50;;;12.85;39.42;94608.59;5031780;28;20619;-51
2022/04/21 07:55:44;;;;;;;8.52;6.40;;;19.90;30.00;;;13.02;39.49;94611.44;5032031;28;20508;-49
2022/04/21 07:58:14;;;;;;;7.85;6.10;;;20.00;29.80;;;12.95;38.92;94611.06;5032031;28;20036;-51
2022/04/21 08:00:40;;;;;;;8.80;5.90;;;20.20;29.80;;;12.78;39.40;94608.22;5032045;28;20034;-49
2022/04/21 08:03:10;;;;;;;7.88;6.45;;;20.30;29.00;;;12.78;39.95;94611.69;5033152;28;20030;-50
2022/04/21 08:05:54;;;;;;;9.43;6.22;;;20.40;29.00;;;12.98;40.34;94609.69;5032221;28;20032;-53
2022/04/21 08:08:19;;;;;;;8.20;6.60;;;20.50;29.00;;;13.13;39.32;94603.94;5024304;28;20588;-54
2022/04/21 08:10:45;;;;;;;9.55;6.85;;;20.60;28.90;;;13.26;39.19;94608.50;5032224;28;20044;-53
2022/04/21 08:13:17;;;;;;;10.90;6.57;;;20.70;28.70;;;13.43;38.17;94603.22;5033245;28;20051;-52
2022/04/21 08:15:54;;;;;;;8.23;6.65;;;20.80;28.60;;;13.36;38.52;94604.78;5021482;28;20396;-52
2022/04/21 08:18:29;;;;;;;7.85;6.50;;;20.90;28.20;;;13.42;38.83;94609.69;5022246;28;20472;-52
2022/04/21 08:20:58;;;;;;;7.25;6.25;;;21.10;28.00;;;13.69;38.40;94607.16;5033296;28;20400;-52
2022/04/21 08:23:36;;;;;;;8.73;6.70;;;21.10;28.00;;;13.44;38.50;94609.38;5032109;28;20105;-51
2022/04/21 08:34:24;;;;;;;9.13;7.40;;;21.50;27.50;;;14.42;36.91;94602.22;5033235;28;20036;-55
2022/04/21 08:36:50;;;;;;;13.40;7.50;;;21.70;27.40;;;14.32;37.29;94603.28;5033833;28;20029;-53
2022/04/21 08:39:19;;;;;;;7.85;6.45;;;21.80;27.30;;;14.35;36.98;94594.63;5034052;28;20079;-53
2022/04/21 08:42:04;;;;;;;8.73;6.32;;;22.00;27.10;;;14.61;36.68;94594.72;5033128;28;20377;-50
2022/04/21 08:44:32;;;;;;;9.73;6.72;;;22.10;26.90;;;14.96;36.54;94594.75;5032672;28;20025;-51
2022/04/21 08:47:02;;;;;;;8.38;6.82;;;22.30;27.00;;;15.21;35.58;94595.81;5032975;28;20082;-51
2022/04/21 08:49:35;;;;;;;7.97;6.85;;;22.50;26.80;;;15.43;35.93;94587.59;5032711;28;20426;-54
2022/04/21 08:52:01;;;;;;;11.52;7.32;;;22.70;26.70;;;15.70;34.80;94588.34;5032736;28;20571;-54
2022/04/21 08:54:27;;;;;;;7.72;6.85;;;22.90;26.50;;;15.96;35.50;94594.41;5032830;28;20503;-55
2022/04/21 08:56:54;;;;;;;8.55;7.07;;;23.10;26.50;;;15.94;33.78;94591.25;5016442;28;20033;-57
2022/04/21 08:59:25;;;;;;;10.35;7.70;;;23.30;26.10;;;15.19;36.43;94593.44;5024569;28;20080;-56
2022/04/21 09:01:51;;;;;;;9.55;7.40;;;23.40;25.80;;;15.41;35.50;94597.06;5012832;28;20440;-53
2022/04/21 09:04:17;;;;;;;7.82;7.03;;;23.50;25.60;;;15.18;36.27;94588.41;5011446;28;20029;-54
2022/04/21 09:06:45;;;;;;;8.15;6.63;;;23.50;25.40;;;15.42;35.36;94586.03;5010711;28;20033;-50
2022/04/21 09:09:13;;;;;;;9.55;7.13;;;23.60;25.30;;;15.72;35.28;94589.59;5014193;28;20369;-55
2022/04/21 09:11:39;;;;;;;11.30;7.00;;;23.70;25.20;;;15.57;35.14;94584.69;5007887;28;20029;-54
2022/04/21 09:14:05;;;;;;;8.77;7.22;;;23.70;25.10;;;14.99;35.50;94584.16;5011275;28;20504;-52
2022/04/21 09:16:34;;;;;;;10.32;7.20;;;23.70;24.80;;;14.94;36.79;94572.81;5011634;28;20040;-52
2022/04/21 09:19:03;;;;;;;9.05;7.25;;;23.70;24.90;;;14.99;36.51;94581.47;5010764;28;20511;-56
2022/04/21 09:21:36;;;;;;;10.07;7.13;;;23.60;24.90;;;14.62;37.39;94584.78;5015921;28;20049;-51
2022/04/21 09:24:25;;;;;;;8.15;6.68;;;23.60;24.90;;;15.08;38.05;94584.16;5017418;28;20026;-50
2022/04/21 09:26:57;;;;;;;7.25;6.47;;;23.60;25.20;;;15.49;36.62;94578.25;5011662;28;20085;-53
2022/04/21 09:29:25;;;;;;;9.95;6.80;;;23.60;25.20;;;15.94;36.17;94583.19;5016207;28;20097;-49
2022/04/21 09:32:04;;;;;;;7.53;6.57;;;23.70;25.40;;;16.54;35.78;94573.22;5014242;28;20443;-50
2022/04/21 09:34:30;;;;;;;10.85;7.20;;;23.90;25.60;;;16.79;34.79;94582.25;5008323;28;20069;-51
2022/04/21 09:37:00;;;;;;;9.60;6.85;;;24.10;25.50;;;16.81;34.76;94577.34;4995528;28;20116;-49
2022/04/21 09:39:27;;;;;;;13.75;7.20;;;24.30;25.40;;;16.52;34.02;94570.09;5013101;28;20072;-52
2022/04/21 09:41:56;;;;;;;7.63;6.88;;;24.50;25.00;;;16.65;34.10;94570.97;5015137;28;20025;-50
2022/04/21 09:47:33;;;;;;;8.60;7.03;;;24.70;24.60;;;16.43;34.58;94564.00;5022989;28;20044;-51
2022/04/21 09:50:12;;;;;;;10.50;7.17;;;24.80;24.20;;;16.79;34.90;94565.34;5013475;28;20147;-52
2022/04/21 09:52:38;;;;;;;10.38;7.38;;;24.80;24.20;;;17.04;33.57;94555.50;5015992;28;20034;-52
2022/04/21 09:55:30;;;;;;;10.05;7.28;;;24.90;24.30;;;17.34;33.38;94545.41;5011165;28;20087;-51
2022/04/21 09:58:10;;;;;;;9.93;7.20;;;25.10;24.20;;;17.31;33.22;94548.75;5012577;28;20026;-54
2022/04/21 10:00:38;;;;;;;8.52;7.13;;;25.30;24.00;;;16.64;33.68;94554.03;5033048;28;20030;-55
2022/04/21 10:03:06;;;;;;;9.68;7.43;;;25.40;23.60;;;17.00;32.95;94555.38;5013341;28;20021;-50
2022/04/21 10:05:34;;;;;;;8.93;6.97;;;25.40;23.60;;;17.03;32.94;94549.31;5010864;28;20070;-50
2022/04/21 10:08:01;;;;;;;9.70;7.80;;;25.40;23.40;;;16.40;33.98;94540.44;5017227;28;20018;-50
2022/04/21 10:10:40;;;;;;;10.15;7.68;;;25.40;23.10;;;16.08;34.78;94541.91;5001347;28;20499;-50
2022/04/21 10:13:09;;;;;;;8.40;7.45;;;25.40;23.00;;;16.79;34.56;94533.06;5014388;28;20034;-53
2022/04/21 10:15:35;;;;;;;8.10;7.10;;;25.40;23.30;;;17.10;33.55;94528.03;5007947;28;20093;-54
2022/04/21 10:18:03;;;;;;;9.57;7.88;;;25.40;23.30;;;17.50;32.69;94529.41;5006887;28;20490;-50
2022/04/21 10:20:31;;;;;;;9.18;7.30;;;25.50;23.40;;;17.83;31.65;94528.56;5007150;28;20363;-52
2022/04/21 10:22:58;;;;;;;10.23;7.63;;;25.70;23.40;;;17.45;31.74;94526.91;5010064;28;20491;-53
2022/04/21 10:25:40;;;;;;;11.13;7.72;;;25.90;23.00;;;17.41;32.42;94526.78;5013200;28;20025;-51
2022/04/21 10:28:37;;;;;;;9.65;7.97;;;25.90;22.70;;;17.78;32.36;94518.81;5004264;28;20044;-52
2022/04/21 10:31:33;;;;;;;8.63;7.45;;;26.00;22.90;;;18.04;31.64;94515.78;5011050;28;20026;-50
2022/04/21 10:34:05;;;;;;;11.13;8.02;;;26.10;22.90;;;18.36;30.49;94508.66;5004920;28;20508;-49
2022/04/21 10:37:05;;;;;;;10.40;8.55;;;26.30;22.80;;;18.64;29.78;94497.94;4990848;28;20473;-53
2022/04/21 10:39:31;;;;;;;9.60;6.97;;;26.40;22.50;;;18.65;30.36;94496.81;5013119;28;20096;-55
2022/04/21 10:42:25;;;;;;;9.30;8.07;;;26.60;22.30;;;18.67;30.28;94491.84;5030674;28;20025;-54
2022/04/21 10:45:13;;;;;;;11.38;8.18;;;26.80;22.00;;;18.79;30.32;94488.38;5030008;28;20664;-53
2022/04/21 10:47:41;;;;;;;11.15;8.13;;;26.90;21.90;;;19.00;29.88;94495.50;5014753;28;20029;-52
2022/04/21 10:50:15;;;;;;;11.98;8.77;;;27.00;22.00;;;19.01;29.75;94478.94;5030104;28;20037;-53
2022/04/21 10:58:36;;;;;;;10.07;7.47;;;27.50;21.40;;;19.18;28.61;94467.06;5031804;28;20124;-54
2022/04/21 11:01:23;;;;;;;10.02;8.25;;;27.60;21.20;;;18.91;30.41;94458.66;5030195;28;20037;-52
2022/04/21 11:04:10;;;;;;;9.27;8.38;;;27.70;21.10;;;19.26;30.18;94459.94;5031471;28;20036;-55
2022/04/21 11:06:45;;;;;;;9.82;8.50;;;27.80;21.30;;;19.38;29.37;94457.94;5046253;28;20026;-52
2022/04/21 11:09:38;;;;;;;9.38;8.25;;;27.90;21.00;;;19.39;28.86;94454.09;5030065;28;20484;-55
2022/04/21 11:12:09;;;;;;;10.88;8.70;;;27.90;20.90;;;18.71;29.78;94446.13;5018746;28;20048;-55
2022/04/21 11:14:37;;;;;;;11.73;9.20;;;28.00;20.50;;;19.00;30.28;94450.41;5029252;28;20041;-53
2022/04/21 11:17:13;;;;;;;11.20;9.40;;;27.90;20.70;;;19.46;30.00;94431.13;5015470;28;20370;-52
2022/04/21 11:19:51;;;;;;;9.25;8.30;;;28.00;21.00;;;19.78;29.00;94424.59;5017102;28;20060;-55
2022/04/21 11:22:40;;;;;;;11.68;8.95;;;28.10;21.00;;;20.34;28.22;94434.34;5031036;28;20393;-52
2022/04/21 11:25:07;;;;;;;14.40;9.68;;;28.20;21.10;;;19.87;28.23;94429.81;5030698;28;20033;-54
2022/04/21 11:27:39;;;;;;;11.15;8.85;;;28.40;20.80;;;19.82;28.49;94430.09;5029705;28;20029;-56